Bushnell, Nebraska
Current Conditions -  °F | °C
As of 4:55 AM on Sunday 25 Jan 2015 (Local Time) from KIBM Reporting Station
Clear Clear  
Wind Chill: 23°   Ceiling: Unl
Heat Index: 32°   Visibility: 10mi
Dew Point: 28°   Wind: 13mph
Humidity: 83%   Direction: 310°NW
Pressure: 30.09"   Gusts: 17mph
Location:  41.23°N, 103.89°W
Report Text: KIBM 251155Z AUTO 31011G15KT 10SM CLR 00/M02 A3009 RMK AO2 70001 T00021023 10027 20001
Loading
Personal Weather Stations






























Interactive Weather Map New forecast layout! Learn more

10-Day Weather Forecast

Advertisements
Track Severe Weather on mobile